Time;durP1;ratioP1;P1;durP2;ratioP2;P2;SDS_P1;SDS_P2;PMS_P1;PMS_P2;Temp;Humidity;BMP_temperature;BMP_pressure;BME280_temperature;BME280_humidity;BME280_pressure;Samples;Min_cycle;Max_cycle;Signal;HPM_P1;HPM_P2
2022/11/11 00:02:57;;;;;;;9.98;4.55;;;14.40;66.40;;;;;;6220276;28;20046;-74
2022/11/11 00:06:17;;;;;;;8.48;4.45;;;14.40;66.40;;;;;;6184792;28;20035;-74
2022/11/11 00:09:36;;;;;;;6.32;3.80;;;14.40;66.40;;;;;;6206082;28;20037;-75
2022/11/11 00:13:04;;;;;;;12.40;4.75;;;14.30;66.30;;;;;;6220176;28;20041;-74
2022/11/11 00:16:24;;;;;;;9.90;4.38;;;14.30;66.30;;;;;;6213103;28;20069;-74
2022/11/11 00:27:04;;;;;;;12.50;4.35;;;14.30;66.20;;;;;;6229150;28;20049;-74
2022/11/11 00:30:23;;;;;;;8.95;3.67;;;14.30;66.20;;;;;;6213723;28;20041;-74
2022/11/11 00:33:43;;;;;;;8.10;4.05;;;14.30;66.10;;;;;;6233680;28;20053;-74
2022/11/11 00:37:02;;;;;;;12.02;4.20;;;14.20;66.10;;;;;;6252778;28;20065;-74
2022/11/11 00:40:22;;;;;;;9.38;4.88;;;14.20;66.10;;;;;;6238501;28;20077;-74
2022/11/11 00:43:43;;;;;;;8.18;4.32;;;14.20;66.10;;;;;;6249626;28;20034;-73
2022/11/11 00:50:59;;;;;;;17.90;5.38;;;14.10;66.20;;;;;;6259465;28;20037;-74
2022/11/11 00:54:18;;;;;;;13.25;4.78;;;14.10;66.20;;;;;;6256125;28;20409;-74
2022/11/11 00:57:38;;;;;;;10.18;4.78;;;14.10;66.30;;;;;;6255523;28;20124;-75
2022/11/11 01:00:57;;;;;;;10.35;4.78;;;14.10;66.30;;;;;;6246214;28;20048;-74
2022/11/11 01:04:17;;;;;;;8.80;4.45;;;14.10;66.40;;;;;;6256379;28;20453;-73
2022/11/11 01:07:36;;;;;;;9.70;4.68;;;14.10;66.50;;;;;;6239186;28;20041;-74
2022/11/11 01:10:56;;;;;;;9.75;4.22;;;14.00;66.50;;;;;;6255909;28;20132;-74
2022/11/11 01:14:16;;;;;;;12.52;5.20;;;14.00;66.70;;;;;;6263390;28;20040;-75
2022/11/11 01:17:36;;;;;;;10.75;5.53;;;14.00;66.80;;;;;;6255931;28;20033;-74
2022/11/11 01:21:16;;;;;;;9.57;5.22;;;14.00;66.90;;;;;;6260188;28;20115;-75
2022/11/11 01:24:37;;;;;;;11.02;5.25;;;13.90;67.00;;;;;;6256728;28;20037;-74
2022/11/11 01:27:56;;;;;;;12.00;4.93;;;13.90;67.00;;;;;;6237183;28;20732;-74
2022/11/11 01:31:17;;;;;;;11.25;4.75;;;13.90;67.30;;;;;;6257044;28;20030;-76
2022/11/11 01:34:37;;;;;;;13.60;5.13;;;13.80;67.50;;;;;;6253598;28;20132;-74
2022/11/11 01:37:58;;;;;;;10.50;5.05;;;13.80;67.80;;;;;;6253556;28;20033;-74
2022/11/11 01:41:33;;;;;;;10.73;5.65;;;13.80;67.80;;;;;;6254289;28;20045;-75
2022/11/11 01:44:53;;;;;;;13.40;5.97;;;13.70;67.90;;;;;;6258131;28;20037;-74
2022/11/11 01:52:38;;;;;;;12.02;5.78;;;13.70;68.10;;;;;;6254709;28;20041;-74
2022/11/11 01:56:01;;;;;;;9.70;5.20;;;13.70;68.10;;;;;;6255875;28;20033;-74
2022/11/11 01:59:21;;;;;;;9.50;4.78;;;13.70;68.00;;;;;;6259384;28;20046;-74
2022/11/11 02:03:20;;;;;;;17.25;5.28;;;13.70;67.90;;;;;;6246727;28;20088;-75
2022/11/11 02:06:40;;;;;;;8.50;4.93;;;13.70;68.00;;;;;;6131210;29;20044;-75
2022/11/11 02:10:02;;;;;;;10.02;4.60;;;13.70;67.90;;;;;;6131622;29;20048;-74
2022/11/11 02:17:00;;;;;;;12.07;4.85;;;13.70;67.90;;;;;;6138020;29;20381;-74
2022/11/11 02:20:23;;;;;;;10.90;5.10;;;13.70;67.80;;;;;;6136070;29;20043;-76
2022/11/11 02:24:01;;;;;;;8.93;4.80;;;13.80;67.90;;;;;;6136889;29;20035;-76
2022/11/11 02:27:23;;;;;;;12.85;4.45;;;13.70;67.80;;;;;;6135438;29;20443;-75
2022/11/11 02:30:42;;;;;;;9.85;4.40;;;13.70;67.80;;;;;;6136241;29;20039;-75
2022/11/11 02:34:02;;;;;;;9.65;4.45;;;13.70;67.80;;;;;;6121715;29;20055;-75
2022/11/11 02:37:25;;;;;;;9.75;5.25;;;13.70;68.60;;;;;;6198723;28;20034;-75
2022/11/11 02:44:26;;;;;;;8.60;4.60;;;13.70;67.90;;;;;;6229460;28;20050;-75
2022/11/11 02:47:46;;;;;;;8.93;4.72;;;13.60;68.10;;;;;;6229110;28;20042;-74
2022/11/11 02:51:07;;;;;;;10.10;4.65;;;13.60;68.20;;;;;;6232447;28;20434;-75
2022/11/11 02:54:27;;;;;;;9.30;4.45;;;13.50;68.10;;;;;;6228636;28;20054;-75
2022/11/11 02:57:46;;;;;;;15.35;5.55;;;13.50;68.30;;;;;;6236209;28;20034;-75
2022/11/11 03:01:06;;;;;;;10.73;4.30;;;13.50;68.40;;;;;;6234109;28;20406;-74
2022/11/11 03:04:26;;;;;;;12.13;4.88;;;13.40;68.50;;;;;;6231895;28;20038;-74
2022/11/11 03:07:45;;;;;;;9.75;4.90;;;13.40;68.50;;;;;;6228840;28;20132;-74
2022/11/11 03:11:05;;;;;;;10.07;4.72;;;13.40;68.50;;;;;;6234037;28;20470;-74
2022/11/11 03:14:25;;;;;;;9.30;4.30;;;13.40;68.50;;;;;;6218535;28;20121;-74
2022/11/11 03:17:45;;;;;;;9.80;4.63;;;13.40;68.50;;;;;;6229712;28;20034;-74
2022/11/11 03:21:04;;;;;;;8.95;4.35;;;13.30;68.40;;;;;;6218030;28;20044;-74
2022/11/11 03:25:36;;;;;;;10.18;4.68;;;13.30;68.50;;;;;;6228698;28;20451;-74
2022/11/11 03:28:16;;;;;;;8.02;4.38;;;13.20;68.60;;;;;;6228123;28;20057;-74
2022/11/11 03:31:36;;;;;;;9.15;4.55;;;13.20;68.90;;;;;;6218140;28;20041;-74
2022/11/11 03:34:55;;;;;;;7.68;4.20;;;13.10;68.90;;;;;;6244394;28;20482;-74
2022/11/11 03:38:15;;;;;;;10.63;4.30;;;13.10;69.10;;;;;;6253492;28;20041;-74
2022/11/11 03:41:34;;;;;;;10.00;4.72;;;13.10;69.20;;;;;;6259222;28;20041;-74
2022/11/11 03:44:54;;;;;;;9.02;4.20;;;13.00;69.40;;;;;;6237182;28;20037;-74
2022/11/11 03:48:14;;;;;;;6.88;3.83;;;13.00;69.50;;;;;;6251509;28;20033;-74
2022/11/11 03:51:34;;;;;;;8.80;4.55;;;12.90;69.40;;;;;;6251189;28;20382;-74
2022/11/11 03:54:54;;;;;;;12.43;4.28;;;12.90;69.50;;;;;;6256086;28;20026;-74
2022/11/11 03:58:14;;;;;;;7.32;4.00;;;12.80;69.60;;;;;;6254428;28;20466;-74
2022/11/11 04:12:30;;;;;;;8.73;3.83;;;12.70;69.80;;;;;;6251867;28;20443;-74
2022/11/11 04:16:07;;;;;;;10.02;3.60;;;12.70;70.00;;;;;;6245013;28;20362;-74
2022/11/11 04:23:05;;;;;;;10.13;4.18;;;12.60;70.10;;;;;;6256715;28;20465;-75
2022/11/11 04:26:25;;;;;;;14.45;4.47;;;12.60;70.30;;;;;;6251532;28;20065;-73
2022/11/11 04:29:49;;;;;;;6.53;3.58;;;12.60;70.40;;;;;;6234447;28;20061;-74
2022/11/11 04:33:09;;;;;;;6.53;3.38;;;12.50;70.40;;;;;;6254628;28;20033;-73
2022/11/11 04:36:29;;;;;;;9.23;4.22;;;12.60;70.50;;;;;;6248186;28;20470;-74
2022/11/11 04:43:28;;;;;;;8.73;3.95;;;12.50;70.60;;;;;;6255875;28;20374;-74
2022/11/11 04:46:48;;;;;;;7.50;4.10;;;12.40;70.50;;;;;;6255690;28;20116;-74
2022/11/11 04:50:07;;;;;;;10.32;4.20;;;12.40;70.50;;;;;;6230455;28;20049;-74
2022/11/11 04:53:29;;;;;;;8.07;4.43;;;12.40;70.70;;;;;;6257830;28;20400;-75
2022/11/11 04:56:49;;;;;;;7.10;4.22;;;12.30;70.90;;;;;;6251359;28;20033;-74
2022/11/11 05:00:10;;;;;;;7.90;3.80;;;12.30;71.00;;;;;;6252604;28;20351;-74
2022/11/11 05:03:30;;;;;;;6.35;3.35;;;12.30;71.00;;;;;;6260916;28;20033;-74
2022/11/11 05:10:27;;;;;;;6.85;4.00;;;12.30;71.20;;;;;;6263730;28;20025;-74
2022/11/11 05:21:21;;;;;;;6.97;3.88;;;12.30;71.40;;;;;;6261206;28;20041;-74
2022/11/11 05:28:18;;;;;;;4.40;2.53;;;12.30;71.30;;;;;;6260761;28;20041;-74
2022/11/11 05:31:38;;;;;;;5.32;2.92;;;12.30;71.50;;;;;;6244277;28;20037;-74
2022/11/11 05:34:58;;;;;;;4.75;2.65;;;12.30;71.40;;;;;;6260276;28;20558;-73
2022/11/11 05:38:20;;;;;;;6.90;3.35;;;12.30;71.40;;;;;;6261500;28;20025;-73
2022/11/11 05:41:39;;;;;;;6.63;3.00;;;12.40;71.20;;;;;;6257576;28;20037;-73
2022/11/11 05:44:59;;;;;;;6.07;3.22;;;12.40;71.80;;;;;;6244091;28;20045;-74
2022/11/11 05:48:19;;;;;;;6.20;3.53;;;12.50;70.90;;;;;;6246676;28;20040;-74
2022/11/11 05:51:38;;;;;;;6.70;3.38;;;12.50;71.60;;;;;;6258849;28;20124;-74
2022/11/11 05:54:58;;;;;;;6.07;3.50;;;12.50;70.70;;;;;;6261487;28;20041;-75
2022/11/11 05:58:18;;;;;;;3.85;2.53;;;12.60;70.60;;;;;;6245616;28;20032;-74
2022/11/11 06:01:38;;;;;;;5.75;2.95;;;12.70;70.40;;;;;;6255352;28;20033;-74
2022/11/11 06:04:58;;;;;;;5.38;2.85;;;12.70;70.20;;;;;;6258854;28;20044;-75
2022/11/11 06:08:18;;;;;;;6.13;3.35;;;12.80;71.10;;;;;;6253017;28;20034;-75
2022/11/11 06:11:37;;;;;;;7.47;3.17;;;12.80;70.20;;;;;;6252725;28;20522;-75
2022/11/11 06:14:57;;;;;;;4.90;3.30;;;12.80;70.10;;;;;;6249478;28;20033;-74
2022/11/11 06:18:16;;;;;;;8.35;3.80;;;12.80;70.10;;;;;;6253071;28;20458;-73
2022/11/11 06:21:57;;;;;;;5.57;3.17;;;12.80;70.10;;;;;;6254920;28;20041;-74
2022/11/11 06:28:55;;;;;;;6.32;3.10;;;12.80;70.00;;;;;;6257863;28;20040;-73
2022/11/11 06:32:14;;;;;;;5.95;3.17;;;12.70;70.00;;;;;;6242941;28;20029;-74
2022/11/11 06:35:42;;;;;;;6.32;3.22;;;12.70;70.00;;;;;;6256224;28;20375;-74
2022/11/11 06:39:02;;;;;;;7.88;3.00;;;12.70;70.10;;;;;;6249742;28;20030;-73
2022/11/11 06:42:21;;;;;;;5.22;3.08;;;12.70;70.20;;;;;;6251876;28;20117;-73
2022/11/11 06:45:41;;;;;;;13.18;3.55;;;12.60;70.20;;;;;;6237090;28;20030;-76
2022/11/11 06:49:00;;;;;;;5.20;3.10;;;12.60;70.40;;;;;;6258814;28;20041;-74
2022/11/11 06:52:20;;;;;;;8.80;3.03;;;12.60;70.30;;;;;;6249234;28;20042;-74
2022/11/11 06:55:40;;;;;;;7.88;3.05;;;12.60;70.20;;;;;;6250770;28;20034;-75
2022/11/11 06:58:59;;;;;;;6.03;3.17;;;12.60;70.10;;;;;;6242512;28;20071;-74
2022/11/11 07:02:19;;;;;;;6.30;3.42;;;12.60;70.10;;;;;;6254899;28;20045;-74
2022/11/11 07:05:39;;;;;;;11.32;3.72;;;12.60;70.00;;;;;;6252448;28;20037;-74
2022/11/11 07:08:58;;;;;;;10.02;3.55;;;12.70;69.80;;;;;;6252624;28;20037;-74
2022/11/11 07:12:18;;;;;;;7.85;3.65;;;12.70;69.80;;;;;;6241238;28;20045;-75
2022/11/11 07:15:38;;;;;;;18.80;4.28;;;12.60;69.70;;;;;;6253796;28;20029;-75
2022/11/11 07:18:57;;;;;;;5.75;3.67;;;12.70;69.90;;;;;;6242687;28;20037;-74
2022/11/11 07:22:16;;;;;;;6.05;3.50;;;12.60;69.80;;;;;;6258376;28;20037;-74
2022/11/11 07:25:36;;;;;;;6.28;4.05;;;12.70;70.00;;;;;;6251470;28;20036;-74
2022/11/11 07:28:56;;;;;;;4.43;3.05;;;12.70;70.00;;;;;;6254041;28;20037;-74
2022/11/11 07:32:16;;;;;;;5.80;3.80;;;12.70;70.10;;;;;;6252788;28;20026;-74
2022/11/11 07:35:35;;;;;;;6.65;3.55;;;12.60;70.20;;;;;;6251530;28;20049;-74
2022/11/11 07:38:55;;;;;;;8.30;4.25;;;12.60;70.30;;;;;;6242494;28;20030;-74
2022/11/11 07:42:15;;;;;;;6.32;3.13;;;12.60;70.30;;;;;;6256859;28;20091;-75
2022/11/11 07:45:34;;;;;;;5.50;3.40;;;12.70;70.30;;;;;;6257604;28;20041;-74
2022/11/11 07:48:54;;;;;;;6.18;3.70;;;12.70;70.10;;;;;;6257895;28;20059;-75
2022/11/11 07:52:13;;;;;;;7.25;3.67;;;12.70;70.00;;;;;;6252581;28;20148;-74
2022/11/11 07:55:33;;;;;;;13.00;3.47;;;12.70;70.00;;;;;;6240427;28;20036;-74
2022/11/11 07:58:53;;;;;;;5.40;3.33;;;12.70;70.00;;;;;;6252015;28;20123;-74
2022/11/11 08:02:13;;;;;;;6.68;3.92;;;12.80;69.90;;;;;;6239801;28;20041;-75
2022/11/11 08:05:32;;;;;;;5.60;3.40;;;12.80;69.90;;;;;;6251694;28;20354;-74
2022/11/11 08:08:52;;;;;;;5.25;3.00;;;12.80;69.70;;;;;;6251862;28;20033;-74
2022/11/11 08:15:50;;;;;;;6.65;3.38;;;12.90;69.70;;;;;;6254768;28;20037;-74
2022/11/11 08:19:09;;;;;;;4.93;3.05;;;13.00;69.80;;;;;;6256002;28;20057;-75
2022/11/11 08:22:29;;;;;;;8.50;3.75;;;13.00;70.60;;;;;;6253549;28;20033;-75
2022/11/11 08:25:48;;;;;;;5.78;3.22;;;13.10;69.70;;;;;;6260988;28;20032;-75
2022/11/11 08:29:08;;;;;;;9.57;4.20;;;13.20;69.70;;;;;;6248084;28;20041;-75
2022/11/11 08:32:28;;;;;;;8.18;4.72;;;13.30;69.60;;;;;;6252206;28;20456;-75
2022/11/11 08:35:48;;;;;;;6.03;3.95;;;13.30;69.40;;;;;;6254230;28;20073;-75
2022/11/11 08:39:08;;;;;;;7.25;4.95;;;13.30;69.40;;;;;;6260954;28;20040;-74
2022/11/11 08:42:28;;;;;;;9.70;5.00;;;13.40;69.30;;;;;;6257656;28;20037;-75
2022/11/11 08:45:52;;;;;;;6.47;4.45;;;13.50;69.30;;;;;;6257470;28;20113;-75
2022/11/11 08:49:12;;;;;;;10.32;4.03;;;13.60;69.30;;;;;;6255918;28;20036;-75
2022/11/11 08:52:31;;;;;;;7.20;3.72;;;13.70;69.00;;;;;;6252517;28;20033;-74
2022/11/11 08:55:51;;;;;;;7.68;3.40;;;13.70;68.70;;;;;;6247229;28;20033;-73
2022/11/11 08:59:10;;;;;;;9.27;4.55;;;13.80;68.40;;;;;;6255960;28;20029;-74
2022/11/11 09:02:30;;;;;;;10.40;3.47;;;13.80;68.40;;;;;;6260604;28;20377;-74
2022/11/11 09:05:50;;;;;;;5.53;3.40;;;13.80;68.50;;;;;;6245146;28;20029;-74
2022/11/11 09:09:10;;;;;;;6.68;3.58;;;13.90;68.40;;;;;;6245024;28;20037;-74
2022/11/11 09:12:29;;;;;;;5.63;3.38;;;14.00;68.20;;;;;;6261099;28;20124;-74
2022/11/11 09:15:51;;;;;;;7.05;3.40;;;14.10;67.60;;;;;;6262115;28;20028;-75
2022/11/11 09:19:11;;;;;;;5.97;3.47;;;14.10;67.70;;;;;;6259651;28;20041;-74
2022/11/11 09:22:31;;;;;;;6.40;3.67;;;14.20;67.50;;;;;;6245703;28;20029;-77
2022/11/11 09:25:50;;;;;;;4.95;3.28;;;14.30;67.10;;;;;;6253445;28;20029;-74
2022/11/11 09:29:10;;;;;;;5.40;3.28;;;14.40;67.10;;;;;;6241797;28;20037;-75
2022/11/11 09:32:29;;;;;;;4.38;3.22;;;14.40;66.90;;;;;;6257431;28;20041;-75
2022/11/11 09:35:49;;;;;;;7.07;3.83;;;14.50;66.70;;;;;;6259548;28;20037;-75
2022/11/11 09:39:09;;;;;;;8.13;3.58;;;14.60;66.60;;;;;;6248172;28;20470;-75
2022/11/11 09:42:39;;;;;;;5.57;3.15;;;14.60;66.50;;;;;;6255423;28;20037;-74
2022/11/11 09:46:47;;;;;;;6.25;3.50;;;14.70;66.60;;;;;;6244865;28;20045;-73
2022/11/11 09:50:24;;;;;;;6.03;3.47;;;14.80;66.50;;;;;;6248935;28;20120;-73
2022/11/11 09:53:59;;;;;;;13.27;4.07;;;15.00;66.20;;;;;;6256777;28;20120;-73
2022/11/11 09:57:36;;;;;;;6.30;3.90;;;15.30;65.80;;;;;;6237985;28;20033;-74
2022/11/11 10:01:24;;;;;;;7.22;3.97;;;15.70;64.80;;;;;;6263459;28;20029;-73
2022/11/11 10:05:05;;;;;;;6.95;3.33;;;16.10;63.30;;;;;;6258147;28;20045;-74
2022/11/11 10:08:35;;;;;;;8.10;3.72;;;16.30;62.20;;;;;;6258708;28;20375;-74
2022/11/11 10:12:14;;;;;;;4.75;3.40;;;16.40;61.80;;;;;;6250850;28;20506;-73
2022/11/11 10:15:42;;;;;;;6.65;3.78;;;16.50;61.80;;;;;;6258044;28;20029;-73
2022/11/11 10:19:10;;;;;;;6.32;3.05;;;16.70;61.10;;;;;;6235192;28;20116;-74
2022/11/11 10:22:40;;;;;;;5.55;3.92;;;16.90;60.80;;;;;;6237700;28;20041;-74
2022/11/11 10:26:06;;;;;;;18.20;3.95;;;17.20;60.20;;;;;;6244120;28;20224;-74
2022/11/11 10:29:40;;;;;;;6.30;4.47;;;17.40;60.40;;;;;;6239570;28;20049;-73
2022/11/11 10:33:18;;;;;;;6.80;3.63;;;17.70;59.50;;;;;;6240162;28;20072;-74
2022/11/11 10:36:45;;;;;;;13.23;3.88;;;17.90;58.40;;;;;;6230418;28;20042;-74
2022/11/11 10:40:24;;;;;;;10.25;3.60;;;18.10;58.00;;;;;;6227982;28;20034;-75
2022/11/11 10:43:46;;;;;;;6.97;3.25;;;18.30;57.60;;;;;;6221143;28;20375;-74
2022/11/11 10:47:42;;;;;;;6.55;3.28;;;18.50;57.00;;;;;;6234573;28;20044;-77
2022/11/11 10:51:03;;;;;;;5.78;3.30;;;18.80;56.90;;;;;;6231388;28;20124;-76
2022/11/11 10:54:28;;;;;;;5.10;3.42;;;19.10;56.10;;;;;;6225075;28;20046;-75
2022/11/11 10:58:11;;;;;;;5.22;3.22;;;19.50;55.40;;;;;;6225262;28;20586;-75
2022/11/11 11:01:47;;;;;;;6.65;3.95;;;19.90;54.80;;;;;;6213034;28;20038;-76
2022/11/11 11:05:12;;;;;;;4.38;2.72;;;20.10;53.30;;;;;;6229686;28;20038;-76
2022/11/11 11:08:46;;;;;;;5.20;3.00;;;20.40;52.40;;;;;;6224804;28;20139;-76
2022/11/11 11:12:19;;;;;;;6.93;3.70;;;20.60;51.80;;;;;;6210456;28;20037;-76
2022/11/11 11:15:44;;;;;;;7.88;4.53;;;21.00;51.70;;;;;;6233024;28;20343;-75
2022/11/11 11:19:24;;;;;;;4.10;2.90;;;21.40;50.50;;;;;;6226208;28;20038;-75
2022/11/11 11:23:01;;;;;;;7.88;3.20;;;21.70;49.70;;;;;;6232813;28;20033;-76
2022/11/11 11:26:20;;;;;;;8.07;4.60;;;22.10;49.30;;;;;;6227388;28;20364;-76
2022/11/11 11:29:44;;;;;;;9.45;2.80;;;22.30;48.50;;;;;;6217562;28;20041;-75
2022/11/11 11:33:06;;;;;;;6.55;3.20;;;22.40;47.70;;;;;;6219623;28;20038;-83
2022/11/11 11:36:26;;;;;;;11.35;3.40;;;22.60;47.40;;;;;;6255451;28;20045;-76
2022/11/11 11:39:46;;;;;;;3.53;2.55;;;22.80;47.10;;;;;;6254150;28;20060;-77
2022/11/11 11:43:33;;;;;;;4.35;2.67;;;23.00;46.50;;;;;;6251231;28;20046;-75
2022/11/11 11:47:05;;;;;;;7.90;3.10;;;22.90;46.40;;;;;;6239191;28;20041;-76
2022/11/11 11:50:50;;;;;;;2.70;2.13;;;22.60;46.80;;;;;;6238066;28;20465;-73
2022/11/11 11:54:17;;;;;;;4.10;2.35;;;22.30;46.80;;;;;;6255822;28;20052;-75
2022/11/11 11:57:54;;;;;;;3.78;2.20;;;21.70;46.80;;;;;;6259520;28;20075;-75
2022/11/11 12:01:23;;;;;;;5.18;2.80;;;21.10;47.70;;;;;;6256673;28;20049;-75
2022/11/11 12:05:03;;;;;;;2.83;1.77;;;20.60;48.70;;;;;;6249159;28;20025;-75
2022/11/11 12:08:46;;;;;;;4.28;2.25;;;20.20;49.60;;;;;;6240921;28;20029;-75
2022/11/11 12:12:14;;;;;;;9.35;3.58;;;20.00;50.40;;;;;;6251980;28;20037;-76
2022/11/11 12:15:40;;;;;;;5.15;2.58;;;19.80;50.70;;;;;;6256962;28;20052;-76
2022/11/11 12:19:11;;;;;;;6.25;2.35;;;19.70;51.00;;;;;;6256721;28;20067;-76
2022/11/11 12:23:05;;;;;;;4.10;2.47;;;19.50;51.30;;;;;;6256344;28;20034;-75
2022/11/11 12:26:42;;;;;;;10.48;2.55;;;19.30;51.70;;;;;;6262867;28;20033;-75
2022/11/11 12:30:13;;;;;;;2.88;2.00;;;19.20;51.80;;;;;;6246486;28;20037;-75
2022/11/11 12:34:09;;;;;;;5.22;2.30;;;19.10;51.80;;;;;;6247574;28;20058;-76
2022/11/11 12:38:01;;;;;;;5.45;2.03;;;19.10;52.00;;;;;;6261834;28;20426;-75
2022/11/11 12:41:40;;;;;;;4.10;2.13;;;19.00;52.10;;;;;;6259771;28;20033;-75
2022/11/11 12:45:19;;;;;;;4.40;2.20;;;18.90;52.00;;;;;;6235813;28;20057;-75
2022/11/11 12:48:50;;;;;;;6.53;2.43;;;18.90;52.00;;;;;;6245635;28;20421;-75
2022/11/11 12:52:23;;;;;;;9.25;2.30;;;18.90;52.10;;;;;;6258026;28;20037;-75
2022/11/11 12:56:03;;;;;;;3.28;2.13;;;19.00;52.20;;;;;;6242714;28;20100;-76
2022/11/11 12:59:47;;;;;;;2.15;1.77;;;19.00;52.20;;;;;;6254339;28;20061;-74
2022/11/11 13:03:39;;;;;;;5.60;1.67;;;19.00;51.90;;;;;;6258405;28;20041;-76
2022/11/11 13:07:19;;;;;;;3.05;1.67;;;19.10;51.70;;;;;;6243884;28;20041;-75
2022/11/11 13:11:12;;;;;;;4.10;2.00;;;19.00;51.60;;;;;;6255667;28;20506;-76
2022/11/11 13:14:50;;;;;;;4.32;1.88;;;19.00;51.70;;;;;;6258899;28;20136;-75
2022/11/11 13:18:16;;;;;;;2.88;1.70;;;19.10;51.70;;;;;;6258567;28;20028;-75
2022/11/11 13:22:06;;;;;;;6.85;1.63;;;19.10;51.40;;;;;;6254761;28;20071;-75
2022/11/11 13:25:31;;;;;;;3.38;1.65;;;19.10;51.30;;;;;;6260395;28;20052;-76
2022/11/11 13:29:07;;;;;;;3.22;1.92;;;19.20;51.20;;;;;;6257814;28;20467;-75
2022/11/11 13:32:39;;;;;;;2.17;1.48;;;19.20;51.00;;;;;;6239926;28;20045;-77
2022/11/11 13:36:02;;;;;;;1.67;1.33;;;19.20;51.00;;;;;;6259636;28;20046;-75
2022/11/11 13:39:33;;;;;;;4.22;1.90;;;19.20;51.00;;;;;;6252224;28;20080;-76
2022/11/11 13:42:53;;;;;;;12.82;1.92;;;19.20;51.20;;;;;;6244024;28;20312;-76
2022/11/11 13:46:34;;;;;;;6.20;1.80;;;19.20;51.10;;;;;;6261633;28;20521;-76
2022/11/11 13:50:04;;;;;;;4.05;1.65;;;19.30;51.20;;;;;;6255538;28;20029;-75
2022/11/11 13:53:24;;;;;;;2.28;1.65;;;19.40;51.00;;;;;;6242879;28;20049;-75
2022/11/11 13:56:46;;;;;;;8.55;2.05;;;19.60;50.80;;;;;;6262425;28;20037;-76
2022/11/11 14:00:21;;;;;;;2.95;1.80;;;19.70;50.50;;;;;;6244774;28;20046;-77
2022/11/11 14:03:44;;;;;;;8.15;2.00;;;19.80;50.40;;;;;;6262983;28;20071;-75
2022/11/11 14:07:06;;;;;;;3.47;1.77;;;19.90;50.40;;;;;;6256178;28;20129;-75
2022/11/11 14:10:34;;;;;;;3.58;1.90;;;20.00;50.30;;;;;;6256112;28;20044;-76
2022/11/11 14:13:56;;;;;;;8.15;2.00;;;20.10;50.30;;;;;;6244566;28;20108;-76
2022/11/11 14:17:17;;;;;;;3.10;1.75;;;20.10;50.20;;;;;;6256979;28;20017;-75
2022/11/11 14:20:39;;;;;;;4.80;2.63;;;20.20;50.30;;;;;;6242415;28;20382;-76
2022/11/11 14:23:59;;;;;;;5.13;2.47;;;20.10;50.40;;;;;;6259827;28;20037;-75
2022/11/11 14:27:28;;;;;;;3.95;2.10;;;20.10;50.50;;;;;;6247666;28;20037;-75
2022/11/11 14:30:47;;;;;;;3.38;2.03;;;20.10;51.10;;;;;;6255609;28;20072;-76
2022/11/11 14:34:33;;;;;;;3.63;1.63;;;20.00;50.50;;;;;;6257863;28;20077;-76
2022/11/11 14:38:17;;;;;;;8.55;1.40;;;19.90;50.60;;;;;;6243551;28;20044;-75
2022/11/11 14:41:51;;;;;;;2.35;1.60;;;19.90;50.70;;;;;;6242668;28;20048;-76
2022/11/11 14:45:24;;;;;;;4.50;1.35;;;19.80;50.60;;;;;;6244117;28;20037;-75
2022/11/11 14:48:51;;;;;;;3.25;1.90;;;19.70;50.70;;;;;;6256971;28;20042;-75
2022/11/11 14:52:26;;;;;;;5.18;1.92;;;19.70;50.80;;;;;;6251031;28;20033;-76
2022/11/11 14:55:53;;;;;;;1.80;1.42;;;19.70;50.80;;;;;;6254471;28;20067;-74
2022/11/11 14:59:17;;;;;;;2.42;1.40;;;19.70;50.80;;;;;;6241542;28;20122;-75
2022/11/11 15:02:46;;;;;;;4.25;1.40;;;19.70;50.80;;;;;;6253471;28;20469;-76
2022/11/11 15:06:33;;;;;;;4.78;2.05;;;19.60;51.00;;;;;;6251482;28;20041;-74
2022/11/11 15:10:52;;;;;;;3.15;1.65;;;19.60;51.10;;;;;;6253358;28;20061;-75
2022/11/11 15:14:23;;;;;;;2.40;1.60;;;19.60;51.30;;;;;;6182679;28;20126;-74
2022/11/11 15:18:18;;;;;;;2.30;1.50;;;19.50;51.30;;;;;;6177391;28;20345;-75
2022/11/11 15:22:06;;;;;;;9.95;2.20;;;19.50;51.50;;;;;;6176076;28;20046;-74
2022/11/11 15:25:53;;;;;;;3.22;1.95;;;19.40;51.70;;;;;;6166203;28;20121;-74
2022/11/11 15:29:39;;;;;;;5.55;1.90;;;19.30;51.80;;;;;;6182305;28;20046;-75
2022/11/11 15:33:11;;;;;;;3.97;1.80;;;19.30;52.00;;;;;;6173417;28;20523;-74
2022/11/11 15:36:31;;;;;;;6.25;1.83;;;19.20;52.10;;;;;;6184030;28;20061;-74
2022/11/11 15:39:56;;;;;;;4.65;2.10;;;19.20;52.20;;;;;;6184411;28;20022;-74
2022/11/11 15:43:28;;;;;;;6.15;2.28;;;19.20;52.30;;;;;;6183549;28;20046;-74
2022/11/11 15:46:49;;;;;;;4.78;2.35;;;19.10;52.40;;;;;;6208347;28;20462;-75
2022/11/11 15:50:24;;;;;;;5.57;2.67;;;19.10;52.50;;;;;;6253919;28;20084;-74
2022/11/11 15:53:44;;;;;;;4.05;1.92;;;19.00;52.60;;;;;;6250099;28;20041;-74
2022/11/11 15:57:29;;;;;;;3.38;1.90;;;19.00;52.80;;;;;;6234021;28;20394;-74
2022/11/11 16:00:50;;;;;;;4.70;2.30;;;18.90;53.10;;;;;;6249292;28;20029;-73
2022/11/11 16:04:18;;;;;;;2.83;1.80;;;18.80;53.10;;;;;;6250246;28;20026;-75
2022/11/11 16:07:42;;;;;;;3.17;1.88;;;18.70;53.30;;;;;;6250566;28;20458;-74
2022/11/11 16:11:02;;;;;;;9.10;2.10;;;18.70;53.60;;;;;;6253905;28;20049;-74
2022/11/11 16:14:42;;;;;;;4.82;1.95;;;18.60;53.70;;;;;;6251471;28;20029;-75
2022/11/11 16:18:09;;;;;;;3.38;1.58;;;18.50;54.00;;;;;;6252543;28;20037;-75
2022/11/11 16:21:38;;;;;;;3.88;1.90;;;18.40;54.10;;;;;;6245256;28;20049;-75
2022/11/11 16:25:00;;;;;;;9.18;2.17;;;18.30;54.20;;;;;;6238685;28;20041;-74
2022/11/11 16:28:20;;;;;;;4.80;2.22;;;18.30;54.30;;;;;;6255723;28;20030;-75
2022/11/11 16:31:43;;;;;;;4.30;1.90;;;18.20;54.40;;;;;;6255270;28;20025;-75
2022/11/11 16:35:28;;;;;;;6.45;2.17;;;18.20;54.60;;;;;;6254228;28;20521;-75
2022/11/11 16:38:47;;;;;;;5.32;2.40;;;18.00;54.70;;;;;;6238323;28;20030;-74
2022/11/11 16:42:20;;;;;;;4.70;2.08;;;18.10;54.80;;;;;;6252058;28;20382;-75
2022/11/11 16:45:54;;;;;;;6.85;2.97;;;18.00;54.90;;;;;;6256543;28;20037;-74
2022/11/11 16:49:21;;;;;;;3.10;1.70;;;17.90;55.00;;;;;;6255833;28;20486;-74
2022/11/11 16:52:57;;;;;;;5.20;2.15;;;17.80;55.20;;;;;;6253965;28;20029;-75
2022/11/11 16:56:24;;;;;;;4.72;2.20;;;17.80;55.30;;;;;;6250581;28;20524;-74
2022/11/11 16:59:53;;;;;;;5.55;2.72;;;17.70;55.40;;;;;;6242176;28;20041;-75
2022/11/11 17:03:19;;;;;;;7.00;3.20;;;17.70;55.60;;;;;;6253909;28;20044;-75
2022/11/11 17:06:54;;;;;;;5.18;2.60;;;17.60;55.60;;;;;;6258823;28;20033;-74
2022/11/11 17:10:17;;;;;;;7.43;2.72;;;17.60;55.70;;;;;;6241243;28;20552;-75
2022/11/11 17:13:36;;;;;;;13.10;3.42;;;17.60;55.80;;;;;;6254199;28;20443;-75
2022/11/11 17:16:57;;;;;;;4.95;2.58;;;17.50;55.80;;;;;;6255585;28;20529;-72
2022/11/11 17:20:19;;;;;;;7.22;2.45;;;17.50;56.00;;;;;;6246350;28;20033;-72
2022/11/11 17:23:39;;;;;;;13.80;2.22;;;17.50;56.20;;;;;;6259042;28;20036;-72
2022/11/11 17:26:59;;;;;;;8.38;2.97;;;17.40;56.30;;;;;;6249184;28;20076;-74
2022/11/11 17:30:18;;;;;;;3.65;2.28;;;17.40;56.50;;;;;;6254814;28;20449;-75
2022/11/11 17:33:38;;;;;;;8.18;2.67;;;17.30;56.80;;;;;;6262329;28;20488;-75
2022/11/11 17:36:58;;;;;;;9.05;3.20;;;17.20;57.10;;;;;;6255973;28;20458;-75
2022/11/11 17:40:17;;;;;;;8.95;4.22;;;17.20;57.40;;;;;;6256251;28;20454;-76
2022/11/11 17:43:37;;;;;;;7.93;3.65;;;17.20;57.60;;;;;;6253473;28;20048;-76
2022/11/11 17:46:56;;;;;;;5.10;2.53;;;17.10;57.70;;;;;;6245898;28;20072;-76
2022/11/11 17:50:16;;;;;;;6.10;2.40;;;17.10;57.80;;;;;;6255869;28;20045;-75
2022/11/11 17:53:36;;;;;;;9.13;3.40;;;17.00;57.90;;;;;;6262107;28;20033;-74
2022/11/11 17:56:55;;;;;;;6.65;2.85;;;17.00;58.10;;;;;;6240982;28;20034;-75
2022/11/11 18:00:16;;;;;;;7.65;3.25;;;16.90;58.20;;;;;;6255185;28;20033;-74
2022/11/11 18:03:37;;;;;;;5.15;3.15;;;16.90;58.30;;;;;;6249131;28;20038;-77
2022/11/11 18:06:56;;;;;;;5.38;2.63;;;16.90;58.30;;;;;;6258773;28;20100;-76
2022/11/11 18:10:16;;;;;;;9.50;3.97;;;16.90;58.40;;;;;;6261686;28;20037;-77
2022/11/11 18:13:36;;;;;;;7.93;3.47;;;16.90;58.50;;;;;;6255192;28;20060;-77
2022/11/11 18:16:55;;;;;;;6.88;3.28;;;16.90;58.50;;;;;;6257610;28;20061;-76
2022/11/11 18:20:15;;;;;;;7.15;3.40;;;16.90;58.60;;;;;;6255478;28;20041;-77
2022/11/11 18:23:36;;;;;;;7.70;3.53;;;16.80;58.50;;;;;;6256288;28;20361;-75
2022/11/11 18:26:56;;;;;;;8.20;3.30;;;16.90;58.50;;;;;;6235371;28;20208;-77
2022/11/11 18:30:15;;;;;;;10.50;3.72;;;16.80;58.50;;;;;;6237148;28;20038;-77
2022/11/11 18:33:36;;;;;;;10.40;3.83;;;16.80;58.50;;;;;;6234680;28;20057;-77
2022/11/11 18:36:55;;;;;;;7.68;3.03;;;16.80;59.20;;;;;;6242261;28;20426;-78
2022/11/11 18:40:15;;;;;;;8.95;3.65;;;16.80;58.80;;;;;;6247723;28;20101;-79
2022/11/11 18:43:46;;;;;;;7.13;3.63;;;16.80;59.00;;;;;;6228089;28;20037;-78
2022/11/11 18:47:06;;;;;;;9.27;3.80;;;16.70;59.00;;;;;;6236013;28;20063;-76
2022/11/11 18:50:25;;;;;;;15.73;5.35;;;16.70;59.20;;;;;;6254351;28;20462;-78
2022/11/11 18:53:46;;;;;;;13.10;4.10;;;16.70;59.30;;;;;;6250355;28;20091;-78